createdAt,value
2023-05-23T00:00:22.557Z,44.35
2023-05-23T00:01:25.435Z,44.55
2023-05-23T00:02:29.312Z,44.74
2023-05-23T00:03:31.778Z,45.03
2023-05-23T00:04:36.572Z,45.47
2023-05-23T00:05:39.027Z,45.45
2023-05-23T00:06:45.060Z,45.44
2023-05-23T00:07:47.571Z,45.91
2023-05-23T00:08:50.719Z,45.51
2023-05-23T00:09:53.007Z,45.98
2023-05-23T00:10:55.299Z,45.98
2023-05-23T00:11:58.039Z,45.89
2023-05-23T00:13:00.434Z,46.23
2023-05-23T00:14:02.748Z,46.48
2023-05-23T00:15:08.275Z,46.46
2023-05-23T00:16:10.752Z,46.50
2023-05-23T00:17:13.134Z,46.56
2023-05-23T00:18:16.725Z,46.83
2023-05-23T00:19:19.187Z,46.91
2023-05-23T00:20:22.088Z,47.49
2023-05-23T00:21:24.657Z,47.74
2023-05-23T00:22:26.946Z,47.84
2023-05-23T00:23:30.691Z,48.13
2023-05-23T00:24:33.008Z,48.79
2023-05-23T00:25:36.083Z,48.69
2023-05-23T00:26:39.027Z,49.02
2023-05-23T00:27:41.446Z,49.21
2023-05-23T00:28:43.813Z,49.16
2023-05-23T00:29:48.430Z,49.43
2023-05-23T00:30:50.959Z,49.73
2023-05-23T00:31:53.355Z,50.02
2023-05-23T00:32:56.088Z,50.20
2023-05-23T00:33:58.456Z,50.69
2023-05-23T00:35:00.727Z,50.87
2023-05-23T00:36:03.504Z,51.08
2023-05-23T00:37:05.924Z,51.32
2023-05-23T00:38:08.437Z,51.37
2023-05-23T00:39:19.536Z,51.24
2023-05-23T00:40:23.444Z,51.31
2023-05-23T00:41:27.270Z,51.61
2023-05-23T00:42:29.696Z,51.79
2023-05-23T00:43:32.333Z,52.10
2023-05-23T00:44:34.693Z,51.58
2023-05-23T00:45:37.021Z,52.03
2023-05-23T00:46:41.440Z,51.64
2023-05-23T00:47:45.451Z,52.08
2023-05-23T00:48:47.871Z,52.17
2023-05-23T00:49:50.453Z,52.52
2023-05-23T00:50:54.090Z,52.74
2023-05-23T00:51:56.495Z,52.55
2023-05-23T00:53:01.177Z,53.11
2023-05-23T00:54:05.909Z,53.16
2023-05-23T00:55:09.065Z,52.74
2023-05-23T00:56:12.610Z,52.68
2023-05-23T00:57:15.001Z,53.29
2023-05-23T00:58:18.012Z,53.05
2023-05-23T00:59:22.029Z,53.29
2023-05-23T01:00:27.370Z,53.44
2023-05-23T01:01:30.606Z,53.39
2023-05-23T01:02:36.976Z,53.62
2023-05-23T01:03:39.434Z,53.68
2023-05-23T01:04:42.304Z,54.46
2023-05-23T01:05:45.526Z,54.37
2023-05-23T01:06:49.564Z,54.79
2023-05-23T01:07:52.712Z,54.68
2023-05-23T01:08:55.116Z,54.73
2023-05-23T01:09:57.829Z,54.93
2023-05-23T01:11:06.819Z,55.52
2023-05-23T01:12:33.468Z,54.74
2023-05-23T01:14:05.475Z,54.71
2023-05-23T01:15:18.588Z,54.93
2023-05-23T01:16:36.362Z,55.28
2023-05-23T01:17:51.040Z,55.32
2023-05-23T01:19:03.316Z,55.91
2023-05-23T01:20:12.904Z,56.00
2023-05-23T01:21:18.225Z,56.29
2023-05-23T01:22:56.767Z,55.96
2023-05-23T01:24:14.426Z,56.17
2023-05-23T01:25:37.062Z,55.89
2023-05-23T01:27:06.005Z,56.31
2023-05-23T01:28:12.824Z,57.09
2023-05-23T01:29:29.813Z,57.21
2023-05-23T01:30:35.836Z,57.17
2023-05-23T01:31:44.541Z,57.18
2023-05-23T01:32:49.716Z,57.18
2023-05-23T01:33:53.809Z,57.29
2023-05-23T01:34:57.043Z,57.16
2023-05-23T01:36:03.045Z,57.21
2023-05-23T01:37:10.151Z,57.43
2023-05-23T01:38:12.500Z,57.46
2023-05-23T01:39:15.144Z,57.53
2023-05-23T01:40:17.443Z,57.81
2023-05-23T01:41:19.756Z,57.75
2023-05-23T01:42:22.355Z,57.55
2023-05-23T01:43:25.525Z,57.86
2023-05-23T01:44:28.307Z,57.52
2023-05-23T01:45:31.879Z,57.55
2023-05-23T01:46:36.187Z,58.08
2023-05-23T01:47:41.420Z,57.58
2023-05-23T01:48:45.486Z,57.79
2023-05-23T01:49:48.405Z,57.71
2023-05-23T01:50:51.692Z,57.73
2023-05-23T01:51:54.322Z,57.44
2023-05-23T01:52:57.815Z,57.65
2023-05-23T01:54:00.552Z,57.45
2023-05-23T01:55:09.961Z,57.20
2023-05-23T01:56:14.070Z,57.33
2023-05-23T01:57:16.587Z,57.98
2023-05-23T01:58:19.380Z,57.72
2023-05-23T01:59:21.797Z,57.81
2023-05-23T02:00:24.649Z,57.98
2023-05-23T02:01:27.681Z,57.84
2023-05-23T02:02:30.413Z,57.84
2023-05-23T02:03:33.138Z,58.36
2023-05-23T02:04:36.176Z,58.76
2023-05-23T02:05:38.584Z,58.76
2023-05-23T02:06:41.957Z,59.08
2023-05-23T02:07:48.170Z,59.16
2023-05-23T02:08:52.953Z,59.54
2023-05-23T02:09:56.499Z,59.15
2023-05-23T02:10:58.852Z,59.28
2023-05-23T02:12:01.636Z,59.26
2023-05-23T02:13:04.259Z,59.69
2023-05-23T02:14:07.488Z,59.48
2023-05-23T02:15:10.090Z,59.82
2023-05-23T02:16:14.136Z,59.93
2023-05-23T02:17:17.238Z,60.08
2023-05-23T02:18:21.021Z,60.19
2023-05-23T02:19:27.223Z,60.33
2023-05-23T02:20:29.718Z,60.06
2023-05-23T02:21:34.898Z,60.37
2023-05-23T02:22:39.319Z,60.51
2023-05-23T02:23:41.787Z,60.60
2023-05-23T02:24:44.262Z,60.72
2023-05-23T02:25:48.861Z,60.37
2023-05-23T02:26:51.414Z,60.63
2023-05-23T02:27:54.217Z,60.72
2023-05-23T02:28:57.412Z,60.86
2023-05-23T02:30:00.648Z,60.94
2023-05-23T02:31:03.675Z,61.06
2023-05-23T02:32:06.435Z,61.01
2023-05-23T02:33:08.791Z,60.81
2023-05-23T02:34:11.885Z,61.20
2023-05-23T02:35:14.251Z,61.12
2023-05-23T02:36:16.731Z,61.42
2023-05-23T02:37:19.417Z,61.37
2023-05-23T02:38:21.754Z,61.73
2023-05-23T02:39:24.312Z,61.09
2023-05-23T02:40:26.912Z,61.36
2023-05-23T02:41:32.012Z,61.26
2023-05-23T02:42:34.590Z,61.46
2023-05-23T02:43:38.663Z,61.29
2023-05-23T02:44:41.231Z,61.14
2023-05-23T02:45:43.804Z,61.32
2023-05-23T02:46:46.854Z,61.36
2023-05-23T02:47:49.341Z,61.29
2023-05-23T02:48:51.778Z,61.29
2023-05-23T02:49:54.169Z,61.30
2023-05-23T02:50:56.625Z,61.23
2023-05-23T02:51:58.994Z,61.28
2023-05-23T02:53:01.357Z,61.12
2023-05-23T02:54:03.930Z,61.30
2023-05-23T02:55:11.266Z,61.23
2023-05-23T02:56:19.111Z,61.50
2023-05-23T02:57:21.561Z,61.48
2023-05-23T02:58:24.305Z,61.67
2023-05-23T02:59:27.024Z,61.71
2023-05-23T03:00:29.570Z,62.09
2023-05-23T03:01:33.256Z,61.69
2023-05-23T03:02:35.799Z,61.60
2023-05-23T03:03:38.324Z,61.88
2023-05-23T03:04:41.633Z,61.50
2023-05-23T03:05:44.261Z,61.63
2023-05-23T03:06:48.047Z,61.74
2023-05-23T03:07:52.325Z,61.50
2023-05-23T03:08:54.677Z,61.63
2023-05-23T03:09:57.848Z,61.40
2023-05-23T03:11:00.335Z,61.40
2023-05-23T03:12:02.930Z,61.51
2023-05-23T03:13:06.420Z,61.58
2023-05-23T03:14:08.914Z,61.74
2023-05-23T03:15:12.036Z,61.42
2023-05-23T03:16:17.212Z,61.33
2023-05-23T03:17:19.820Z,61.59
2023-05-23T03:18:22.353Z,61.53
2023-05-23T03:19:26.222Z,61.43
2023-05-23T03:20:28.771Z,61.63
2023-05-23T03:21:33.026Z,61.75
2023-05-23T03:22:36.925Z,61.52
2023-05-23T03:23:39.492Z,61.76
2023-05-23T03:24:42.093Z,61.58
2023-05-23T03:25:45.761Z,61.56
2023-05-23T03:26:48.201Z,61.75
2023-05-23T03:27:50.733Z,61.88
2023-05-23T03:28:53.368Z,61.69
2023-05-23T03:29:55.893Z,61.69
2023-05-23T03:30:59.040Z,61.71
2023-05-23T03:32:01.685Z,62.07
2023-05-23T03:33:04.586Z,62.24
2023-05-23T03:34:07.121Z,62.01
2023-05-23T03:35:10.239Z,61.79
2023-05-23T03:36:13.019Z,61.81
2023-05-23T03:37:15.563Z,62.19
2023-05-23T03:38:18.076Z,62.48
2023-05-23T03:39:20.704Z,62.09
2023-05-23T03:40:23.269Z,62.31
2023-05-23T03:41:26.767Z,62.52
2023-05-23T03:42:31.749Z,62.38
2023-05-23T03:43:35.070Z,62.29
2023-05-23T03:44:37.533Z,61.99
2023-05-23T03:45:42.276Z,62.10
2023-05-23T03:46:48.978Z,62.55
2023-05-23T03:47:53.020Z,62.55
2023-05-23T03:48:55.546Z,62.71
2023-05-23T03:49:59.121Z,62.68
2023-05-23T03:51:03.382Z,62.86
2023-05-23T03:52:07.132Z,62.85
2023-05-23T03:53:10.301Z,62.72
2023-05-23T03:54:13.303Z,62.88
2023-05-23T03:55:16.684Z,63.00
2023-05-23T03:56:20.333Z,62.76
2023-05-23T03:57:23.290Z,62.81
2023-05-23T03:58:26.664Z,62.73
2023-05-23T03:59:34.708Z,63.03
2023-05-23T04:00:38.744Z,62.99
2023-05-23T04:01:43.300Z,62.87
2023-05-23T04:02:47.123Z,63.25
2023-05-23T04:03:53.203Z,63.27
2023-05-23T04:04:57.442Z,63.10
2023-05-23T04:06:01.596Z,63.38
2023-05-23T04:07:06.074Z,63.59
2023-05-23T04:08:08.922Z,63.42
2023-05-23T04:09:11.476Z,63.33
2023-05-23T04:10:17.623Z,63.60
2023-05-23T04:11:22.527Z,63.59
2023-05-23T04:12:25.865Z,63.50
2023-05-23T04:13:28.848Z,63.47
2023-05-23T04:14:33.950Z,63.70
2023-05-23T04:15:36.592Z,63.65
2023-05-23T04:16:42.782Z,63.49
2023-05-23T04:17:45.777Z,63.66
2023-05-23T04:18:48.717Z,63.54
2023-05-23T04:19:52.270Z,63.84
2023-05-23T04:20:54.932Z,63.80
2023-05-23T04:21:57.245Z,63.65
2023-05-23T04:22:59.761Z,63.73
2023-05-23T04:24:04.322Z,63.56
2023-05-23T04:25:07.123Z,63.71
2023-05-23T04:26:14.292Z,63.86
2023-05-23T04:27:26.213Z,63.53
2023-05-23T04:28:29.451Z,63.41
2023-05-23T04:29:34.739Z,63.61
2023-05-23T04:30:37.163Z,63.60
2023-05-23T04:31:40.077Z,63.57
2023-05-23T04:32:42.468Z,63.56
2023-05-23T04:33:46.090Z,63.48
2023-05-23T04:34:48.859Z,63.75
2023-05-23T04:35:51.524Z,63.36
2023-05-23T04:36:54.824Z,63.63
2023-05-23T04:37:58.279Z,63.78
2023-05-23T04:39:02.643Z,63.56
2023-05-23T04:40:09.324Z,63.67
2023-05-23T04:41:38.965Z,63.61
2023-05-23T04:43:09.616Z,63.63
2023-05-23T04:44:30.569Z,63.54
2023-05-23T04:45:51.842Z,63.65
2023-05-23T04:47:11.914Z,63.41
2023-05-23T04:48:36.001Z,63.17
2023-05-23T04:49:38.371Z,63.22
2023-05-23T04:50:41.047Z,63.41
2023-05-23T04:51:43.634Z,63.34
2023-05-23T04:52:52.686Z,63.03
2023-05-23T04:53:56.550Z,63.08
2023-05-23T04:54:59.180Z,63.03
2023-05-23T04:56:01.528Z,62.72
2023-05-23T04:57:05.254Z,62.84
2023-05-23T04:58:08.838Z,62.41
2023-05-23T04:59:11.771Z,62.49
2023-05-23T05:00:15.103Z,62.50
2023-05-23T05:01:17.519Z,62.48
2023-05-23T05:02:20.088Z,62.53
2023-05-23T05:03:25.228Z,62.23
2023-05-23T05:04:28.208Z,62.09
2023-05-23T05:05:30.881Z,62.42
2023-05-23T05:06:33.672Z,62.31
2023-05-23T05:07:36.007Z,62.35
2023-05-23T05:08:41.093Z,62.20
2023-05-23T05:09:44.335Z,62.41
2023-05-23T05:10:47.540Z,62.10
2023-05-23T05:11:51.655Z,62.20
2023-05-23T05:12:55.251Z,62.21
2023-05-23T05:13:58.158Z,62.21
2023-05-23T05:15:00.465Z,62.08
2023-05-23T05:16:04.053Z,62.04
2023-05-23T05:17:06.494Z,61.91
2023-05-23T05:18:17.066Z,61.97
2023-05-23T05:19:21.950Z,62.06
2023-05-23T05:20:24.722Z,61.98
2023-05-23T05:21:27.140Z,62.04
2023-05-23T05:22:30.224Z,61.81
2023-05-23T05:23:33.576Z,62.36
2023-05-23T05:24:36.064Z,62.10
2023-05-23T05:25:38.616Z,62.45
2023-05-23T05:26:40.990Z,62.48
2023-05-23T05:27:43.973Z,62.25
2023-05-23T05:28:48.640Z,61.93
2023-05-23T05:29:52.070Z,62.32
2023-05-23T05:30:54.683Z,62.19
2023-05-23T05:31:58.337Z,62.08
2023-05-23T05:33:04.782Z,62.22
2023-05-23T05:34:08.035Z,62.23
2023-05-23T05:35:10.500Z,62.29
2023-05-23T05:36:12.873Z,62.07
2023-05-23T05:37:18.892Z,62.22
2023-05-23T05:38:21.299Z,62.03
2023-05-23T05:39:24.932Z,62.33
2023-05-23T05:40:27.260Z,62.36
2023-05-23T05:41:30.621Z,62.03
2023-05-23T05:42:33.428Z,62.22
2023-05-23T05:43:36.095Z,62.34
2023-05-23T05:44:38.742Z,62.01
2023-05-23T05:45:41.108Z,61.89
2023-05-23T05:46:43.734Z,62.22
2023-05-23T05:47:48.374Z,62.05
2023-05-23T05:48:50.766Z,61.91
2023-05-23T05:49:54.085Z,62.26
2023-05-23T05:50:56.557Z,61.77
2023-05-23T05:51:58.922Z,61.70
2023-05-23T05:53:01.274Z,61.81
2023-05-23T05:54:04.007Z,62.13
2023-05-23T05:55:13.608Z,62.20
2023-05-23T05:56:21.060Z,62.54
2023-05-23T05:57:23.891Z,62.55
2023-05-23T05:58:26.256Z,62.36
2023-05-23T05:59:41.453Z,62.29
2023-05-23T06:00:44.469Z,62.35
2023-05-23T06:01:46.821Z,61.98
2023-05-23T06:02:51.855Z,61.77
2023-05-23T06:04:17.868Z,61.58
2023-05-23T06:05:20.794Z,61.08
2023-05-23T06:06:23.583Z,61.31
2023-05-23T06:07:26.641Z,60.74
2023-05-23T06:08:29.000Z,60.95
2023-05-23T06:09:31.388Z,60.43
2023-05-23T06:10:34.097Z,60.41
2023-05-23T06:11:41.113Z,60.28
2023-05-23T06:12:43.782Z,60.07
2023-05-23T06:13:46.417Z,60.15
2023-05-23T06:14:48.731Z,59.85
2023-05-23T06:15:52.373Z,59.49
2023-05-23T06:16:55.032Z,59.53
2023-05-23T06:17:57.478Z,59.57
2023-05-23T06:19:00.452Z,59.31
2023-05-23T06:20:05.343Z,59.02
2023-05-23T06:21:09.608Z,58.28
2023-05-23T06:22:12.455Z,58.40
2023-05-23T06:23:14.839Z,57.96
2023-05-23T06:24:17.244Z,58.10
2023-05-23T06:25:19.741Z,57.96
2023-05-23T06:26:22.985Z,57.64
2023-05-23T06:27:27.661Z,57.26
2023-05-23T06:28:30.031Z,57.38
2023-05-23T06:29:32.326Z,56.86
2023-05-23T06:30:37.662Z,57.02
2023-05-23T06:31:40.168Z,56.83
2023-05-23T06:32:42.716Z,56.88
2023-05-23T06:33:45.046Z,56.67
2023-05-23T06:34:47.346Z,56.56
2023-05-23T06:35:50.931Z,56.42
2023-05-23T06:36:53.649Z,56.40
2023-05-23T06:37:56.183Z,56.53
2023-05-23T06:38:58.516Z,56.41
2023-05-23T06:40:01.751Z,56.43
2023-05-23T06:41:07.428Z,56.64
2023-05-23T06:42:11.628Z,56.58
2023-05-23T06:43:40.340Z,56.56
2023-05-23T06:44:58.776Z,56.78
2023-05-23T06:46:01.222Z,56.70
2023-05-23T06:47:04.529Z,56.28
2023-05-23T06:48:07.230Z,56.69
2023-05-23T06:49:15.022Z,56.66
2023-05-23T06:50:20.233Z,56.85
2023-05-23T06:51:24.362Z,56.88
2023-05-23T06:52:27.300Z,56.99
2023-05-23T06:53:29.725Z,56.98
2023-05-23T06:54:32.158Z,56.92
2023-05-23T06:55:34.927Z,57.31
2023-05-23T06:56:37.247Z,57.17
2023-05-23T06:57:40.652Z,57.16
2023-05-23T06:58:45.195Z,56.84
2023-05-23T06:59:49.469Z,56.56
2023-05-23T07:00:51.849Z,56.75
2023-05-23T07:02:01.017Z,56.47
2023-05-23T07:03:04.957Z,56.30
2023-05-23T07:04:09.130Z,56.34
2023-05-23T07:05:11.656Z,56.33
2023-05-23T07:06:22.333Z,56.10
2023-05-23T07:07:26.121Z,55.88
2023-05-23T07:08:28.609Z,55.87
2023-05-23T07:09:34.567Z,55.55
2023-05-23T07:10:49.172Z,55.31
2023-05-23T07:12:11.711Z,55.11
2023-05-23T07:13:17.002Z,55.09
2023-05-23T07:14:20.503Z,54.63
2023-05-23T07:15:22.881Z,54.81
2023-05-23T07:16:36.340Z,54.88
2023-05-23T07:17:42.142Z,54.47
2023-05-23T07:18:44.961Z,54.76
2023-05-23T07:19:47.265Z,55.08
2023-05-23T07:20:50.322Z,54.51
2023-05-23T07:21:55.291Z,54.35
2023-05-23T07:22:58.057Z,54.60
2023-05-23T07:24:00.779Z,53.87
2023-05-23T07:25:04.473Z,53.44
2023-05-23T07:26:10.062Z,53.02
2023-05-23T07:27:19.715Z,52.86
2023-05-23T07:28:22.509Z,53.05
2023-05-23T07:29:25.053Z,52.83
2023-05-23T07:30:28.668Z,52.91
2023-05-23T07:31:31.599Z,52.90
2023-05-23T07:32:35.086Z,52.91
2023-05-23T07:33:37.863Z,53.12
2023-05-23T07:34:41.468Z,53.34
2023-05-23T07:35:45.018Z,53.07
2023-05-23T07:36:47.921Z,53.12
2023-05-23T07:37:51.225Z,53.19
2023-05-23T07:38:53.763Z,53.51
2023-05-23T07:39:56.156Z,52.77
2023-05-23T07:41:10.086Z,53.00
2023-05-23T07:42:14.227Z,52.52
2023-05-23T07:43:16.690Z,52.09
2023-05-23T07:44:20.729Z,51.43
2023-05-23T07:45:24.833Z,50.32
2023-05-23T07:46:27.325Z,49.94
2023-05-23T07:47:29.787Z,50.23
2023-05-23T07:48:34.227Z,49.80
2023-05-23T07:49:37.230Z,49.88
2023-05-23T07:50:41.076Z,49.51
2023-05-23T07:51:44.860Z,49.11
2023-05-23T07:52:47.289Z,48.88
2023-05-23T07:53:52.275Z,49.20
2023-05-23T07:54:57.308Z,48.90
2023-05-23T07:55:59.596Z,48.40
2023-05-23T07:57:07.582Z,48.19
2023-05-23T07:58:11.795Z,47.99
2023-05-23T07:59:14.202Z,48.24
2023-05-23T08:00:18.583Z,47.86
2023-05-23T08:01:27.466Z,47.71
2023-05-23T08:02:37.411Z,47.31
2023-05-23T08:03:39.864Z,47.26
2023-05-23T08:04:49.100Z,46.88
2023-05-23T08:05:51.805Z,46.13
2023-05-23T08:08:03.697Z,45.16
2023-05-23T08:09:07.097Z,44.94
2023-05-23T08:10:13.716Z,44.86
2023-05-23T08:11:16.210Z,44.78
2023-05-23T08:12:22.397Z,44.50
2023-05-23T08:13:31.550Z,44.54
2023-05-23T08:15:00.143Z,44.64
2023-05-23T08:16:10.395Z,44.55
2023-05-23T08:17:13.635Z,44.61
2023-05-23T08:18:18.390Z,44.76
2023-05-23T08:19:20.960Z,44.86
2023-05-23T08:20:31.057Z,44.85
2023-05-23T08:21:36.596Z,44.96
2023-05-23T08:22:39.001Z,44.77
2023-05-23T08:23:41.803Z,44.92
2023-05-23T08:24:45.982Z,44.99
2023-05-23T08:25:48.782Z,45.23
2023-05-23T08:26:51.431Z,45.56
2023-05-23T08:27:54.226Z,45.04
2023-05-23T08:29:12.820Z,44.92
2023-05-23T08:30:16.804Z,44.70
2023-05-23T08:31:19.863Z,44.27
2023-05-23T08:32:22.449Z,44.31
2023-05-23T08:33:26.107Z,44.42
2023-05-23T08:34:34.200Z,44.51
2023-05-23T08:35:37.366Z,44.47
2023-05-23T08:36:43.529Z,43.83
2023-05-23T08:37:51.099Z,43.65
2023-05-23T08:38:57.691Z,43.34
2023-05-23T08:40:05.266Z,43.30
2023-05-23T08:41:31.309Z,43.80
2023-05-23T08:42:40.934Z,43.71
2023-05-23T08:43:45.104Z,43.56
2023-05-23T08:44:52.071Z,42.90
2023-05-23T08:45:55.640Z,42.63
2023-05-23T08:47:02.712Z,43.12
2023-05-23T08:48:20.512Z,42.90
2023-05-23T08:49:26.182Z,42.80
2023-05-23T08:50:30.818Z,42.91
2023-05-23T08:51:37.986Z,43.07
2023-05-23T08:52:56.251Z,43.16
2023-05-23T08:53:59.995Z,43.06
2023-05-23T08:55:06.291Z,42.97
2023-05-23T08:56:10.621Z,43.37
2023-05-23T08:57:18.229Z,43.38
2023-05-23T08:58:29.532Z,42.95
2023-05-23T08:59:35.449Z,43.17
2023-05-23T09:00:38.039Z,42.76
2023-05-23T09:01:42.152Z,43.19
2023-05-23T09:02:47.039Z,43.14
2023-05-23T09:04:07.403Z,43.46
2023-05-23T09:05:15.730Z,43.49
2023-05-23T09:06:21.641Z,43.46
2023-05-23T09:07:24.243Z,43.43
2023-05-23T09:08:28.792Z,43.55
2023-05-23T09:09:34.211Z,43.41
2023-05-23T09:10:38.290Z,43.52
2023-05-23T09:11:46.220Z,43.87
2023-05-23T09:12:50.083Z,43.81
2023-05-23T09:13:53.125Z,44.09
2023-05-23T09:15:00.119Z,44.09
2023-05-23T09:16:04.350Z,44.25
2023-05-23T09:17:16.993Z,44.30
2023-05-23T09:18:19.334Z,44.50
2023-05-23T09:19:22.011Z,44.75
2023-05-23T09:20:33.644Z,44.63
2023-05-23T09:21:44.048Z,44.74
2023-05-23T09:22:52.021Z,45.14
2023-05-23T09:23:55.261Z,45.31
2023-05-23T09:24:58.973Z,45.35
2023-05-23T09:26:06.761Z,45.48
2023-05-23T09:27:09.260Z,45.90
2023-05-23T09:28:11.906Z,45.88
2023-05-23T09:29:15.118Z,46.00
2023-05-23T09:30:19.343Z,45.69
2023-05-23T09:31:27.097Z,45.49
2023-05-23T09:32:29.647Z,45.85
2023-05-23T09:33:49.619Z,46.07
2023-05-23T09:35:03.873Z,46.16
2023-05-23T09:36:07.654Z,46.23
2023-05-23T09:37:13.671Z,46.07
2023-05-23T09:38:16.759Z,46.36
2023-05-23T09:39:19.534Z,46.19
2023-05-23T09:40:23.093Z,46.25
2023-05-23T09:41:34.672Z,46.11
2023-05-23T09:42:43.848Z,46.14
2023-05-23T09:43:54.355Z,46.03
2023-05-23T09:44:56.874Z,46.10
2023-05-23T09:46:17.383Z,46.06
2023-05-23T09:47:19.834Z,46.05
2023-05-23T09:48:31.011Z,46.31
2023-05-23T09:49:33.702Z,46.17
2023-05-23T09:50:36.285Z,46.21
2023-05-23T09:51:40.363Z,45.95
2023-05-23T09:52:43.030Z,46.02
2023-05-23T09:53:45.567Z,46.40
2023-05-23T09:54:48.071Z,46.21
2023-05-23T09:55:52.002Z,46.16
2023-05-23T09:56:57.596Z,46.44
2023-05-23T09:58:01.602Z,46.34
2023-05-23T09:59:07.829Z,46.41
2023-05-23T10:00:12.588Z,46.46
2023-05-23T10:01:19.963Z,46.41
2023-05-23T10:02:42.841Z,46.08
2023-05-23T10:03:50.612Z,45.81
2023-05-23T10:04:54.427Z,45.90
2023-05-23T10:06:17.931Z,45.72
2023-05-23T10:07:22.694Z,45.75
2023-05-23T10:08:32.599Z,45.60
2023-05-23T10:09:38.358Z,45.76
2023-05-23T10:10:58.965Z,45.74
2023-05-23T10:12:13.386Z,45.78
2023-05-23T10:13:16.258Z,45.51
2023-05-23T10:14:19.802Z,45.04
2023-05-23T10:15:24.211Z,44.81
2023-05-23T10:16:48.490Z,45.06
2023-05-23T10:18:06.269Z,45.03
2023-05-23T10:19:24.445Z,45.12
2023-05-23T10:20:34.373Z,45.28
2023-05-23T10:21:46.638Z,45.30
2023-05-23T10:22:50.449Z,45.37
2023-05-23T10:23:53.411Z,45.52
2023-05-23T10:24:55.875Z,45.49
2023-05-23T10:25:58.300Z,45.81
2023-05-23T10:27:01.080Z,45.75
2023-05-23T10:28:05.468Z,45.58
2023-05-23T10:29:07.873Z,45.51
2023-05-23T10:30:10.834Z,45.69
2023-05-23T10:31:13.344Z,45.89
2023-05-23T10:32:16.806Z,45.87
2023-05-23T10:33:20.069Z,46.04
2023-05-23T10:34:28.872Z,45.84
2023-05-23T10:36:10.380Z,45.89
2023-05-23T10:37:26.589Z,46.25
2023-05-23T10:38:40.465Z,46.16
2023-05-23T10:40:11.895Z,46.15
2023-05-23T10:41:23.436Z,46.35
2023-05-23T10:42:45.576Z,46.45
2023-05-23T10:44:13.301Z,46.42
2023-05-23T10:45:20.616Z,46.47
2023-05-23T10:46:23.237Z,46.50
2023-05-23T10:47:31.539Z,46.30
2023-05-23T10:48:36.441Z,46.21
2023-05-23T10:49:44.083Z,46.32
2023-05-23T10:50:47.027Z,46.62
2023-05-23T10:51:54.974Z,46.46
2023-05-23T10:52:57.300Z,46.96
2023-05-23T10:53:59.847Z,46.71
2023-05-23T10:55:02.257Z,46.94
2023-05-23T10:56:19.606Z,46.90
2023-05-23T10:57:28.184Z,47.20
2023-05-23T10:58:32.260Z,47.13
2023-05-23T10:59:37.065Z,47.67
2023-05-23T11:00:39.922Z,47.23
2023-05-23T11:01:42.805Z,47.57
2023-05-23T11:02:57.401Z,47.51
2023-05-23T11:04:05.776Z,47.19
2023-05-23T11:05:33.014Z,47.23
2023-05-23T11:06:43.652Z,47.37
2023-05-23T11:07:46.361Z,47.21
2023-05-23T11:08:49.207Z,47.21
2023-05-23T11:10:10.643Z,47.02
2023-05-23T11:11:13.082Z,47.04
2023-05-23T11:12:15.501Z,47.20
2023-05-23T11:13:18.194Z,46.94
2023-05-23T11:14:46.402Z,46.65
2023-05-23T11:15:50.788Z,46.75
2023-05-23T11:16:53.521Z,46.52
2023-05-23T11:17:57.959Z,46.65
2023-05-23T11:19:18.763Z,46.70
2023-05-23T11:20:23.711Z,46.79
2023-05-23T11:21:26.235Z,46.48
2023-05-23T11:22:32.149Z,46.86
2023-05-23T11:23:44.038Z,46.75
2023-05-23T11:24:57.408Z,46.61
2023-05-23T11:25:59.722Z,46.56
2023-05-23T11:27:02.064Z,46.64
2023-05-23T11:28:05.302Z,46.67
2023-05-23T11:29:10.297Z,46.84
2023-05-23T11:30:14.994Z,46.77
2023-05-23T11:31:17.706Z,46.84
2023-05-23T11:32:20.139Z,46.42
2023-05-23T11:33:22.485Z,46.25
2023-05-23T11:34:28.469Z,45.93
2023-05-23T11:35:31.262Z,46.28
2023-05-23T11:36:34.032Z,45.92
2023-05-23T11:37:38.579Z,45.93
2023-05-23T11:38:41.144Z,45.83
2023-05-23T11:39:46.756Z,45.61
2023-05-23T11:40:49.119Z,45.63
2023-05-23T11:42:04.315Z,45.58
2023-05-23T11:43:11.690Z,46.08
2023-05-23T11:44:14.373Z,46.03
2023-05-23T11:45:16.718Z,45.75
2023-05-23T11:46:19.483Z,45.81
2023-05-23T11:47:22.230Z,45.50
2023-05-23T11:48:24.650Z,45.60
2023-05-23T11:49:29.145Z,45.70
2023-05-23T11:50:31.463Z,45.57
2023-05-23T11:51:33.857Z,45.87
2023-05-23T11:52:36.318Z,45.94
2023-05-23T11:53:39.030Z,45.87
2023-05-23T11:54:43.234Z,45.50
2023-05-23T11:55:49.764Z,45.48
2023-05-23T11:56:52.626Z,45.69
2023-05-23T11:57:56.811Z,45.91
2023-05-23T11:58:59.177Z,45.67
2023-05-23T12:00:01.548Z,45.87
2023-05-23T12:01:06.894Z,46.01
2023-05-23T12:02:09.301Z,46.04
2023-05-23T12:03:12.131Z,45.95
2023-05-23T12:04:14.639Z,46.10
2023-05-23T12:05:17.265Z,46.05
2023-05-23T12:06:20.532Z,46.03
2023-05-23T12:07:22.909Z,46.17
2023-05-23T12:08:25.798Z,46.20
2023-05-23T12:09:28.164Z,46.33
2023-05-23T12:10:30.623Z,46.15
2023-05-23T12:11:33.470Z,46.21
2023-05-23T12:12:35.953Z,46.31
2023-05-23T12:13:41.728Z,45.83
2023-05-23T12:14:46.741Z,45.76
2023-05-23T12:15:49.596Z,45.66
2023-05-23T12:16:55.153Z,45.76
2023-05-23T12:17:58.369Z,45.90
2023-05-23T12:19:05.351Z,45.91
2023-05-23T12:20:08.700Z,45.87
2023-05-23T12:21:12.179Z,45.74
2023-05-23T12:22:14.840Z,45.84
2023-05-23T12:23:23.846Z,45.55
2023-05-23T12:24:26.219Z,45.51
2023-05-23T12:25:28.705Z,45.34
2023-05-23T12:26:31.179Z,45.29
2023-05-23T12:27:35.942Z,45.46
2023-05-23T12:28:40.615Z,44.95
2023-05-23T12:29:43.034Z,44.83
2023-05-23T12:30:45.337Z,45.02
2023-05-23T12:31:54.613Z,44.98
2023-05-23T12:32:57.061Z,44.87
2023-05-23T12:33:59.939Z,45.08
2023-05-23T12:35:02.476Z,44.97
2023-05-23T12:36:05.131Z,45.25
2023-05-23T12:37:19.061Z,45.16
2023-05-23T12:38:23.878Z,45.16
2023-05-23T12:39:28.343Z,44.81
2023-05-23T12:40:31.051Z,45.04
2023-05-23T12:41:34.380Z,45.33
2023-05-23T12:42:54.195Z,45.13
2023-05-23T12:43:57.208Z,45.09
2023-05-23T12:45:00.446Z,45.28
2023-05-23T12:46:03.193Z,45.36
2023-05-23T12:47:05.841Z,45.53
2023-05-23T12:48:08.979Z,45.63
2023-05-23T12:49:11.392Z,45.45
2023-05-23T12:50:13.788Z,45.67
2023-05-23T12:51:16.850Z,45.49
2023-05-23T12:52:19.263Z,45.72
2023-05-23T12:53:22.509Z,45.68
2023-05-23T12:54:26.483Z,45.67
2023-05-23T12:55:28.874Z,45.76
2023-05-23T12:56:31.715Z,45.92
2023-05-23T12:57:35.743Z,45.70
2023-05-23T12:58:38.118Z,45.81
2023-05-23T12:59:40.414Z,45.87
2023-05-23T13:00:42.774Z,45.79
2023-05-23T13:01:45.223Z,46.05
2023-05-23T13:02:47.678Z,45.78
2023-05-23T13:03:50.247Z,45.97
2023-05-23T13:04:52.589Z,45.56
2023-05-23T13:05:55.024Z,45.36
2023-05-23T13:06:57.680Z,45.60
2023-05-23T13:08:00.404Z,45.64
2023-05-23T13:09:02.904Z,45.42
2023-05-23T13:10:06.967Z,45.49
2023-05-23T13:11:09.460Z,45.65
2023-05-23T13:12:12.673Z,45.92
2023-05-23T13:13:15.499Z,46.02
2023-05-23T13:14:17.973Z,45.90
2023-05-23T13:15:20.440Z,45.95
2023-05-23T13:16:22.897Z,45.79
2023-05-23T13:17:25.314Z,46.29
2023-05-23T13:18:27.626Z,46.20
2023-05-23T13:19:30.126Z,46.24
2023-05-23T13:20:32.536Z,46.41
2023-05-23T13:21:34.963Z,46.68
2023-05-23T13:22:37.350Z,46.49
2023-05-23T13:23:39.739Z,46.77
2023-05-23T13:24:43.884Z,46.86
2023-05-23T13:25:46.466Z,47.05
2023-05-23T13:26:48.866Z,46.92
2023-05-23T13:27:51.246Z,47.27
2023-05-23T13:28:53.769Z,47.20
2023-05-23T13:29:56.127Z,47.60
2023-05-23T13:30:58.624Z,47.52
2023-05-23T13:32:01.059Z,47.72
2023-05-23T13:33:03.595Z,47.81
2023-05-23T13:34:06.330Z,47.81
2023-05-23T13:35:08.997Z,48.37
2023-05-23T13:36:11.330Z,48.44
2023-05-23T13:37:14.875Z,48.27
2023-05-23T13:38:21.094Z,47.74
2023-05-23T13:39:23.813Z,48.08
2023-05-23T13:40:26.217Z,47.76
2023-05-23T13:41:28.618Z,48.12
2023-05-23T13:42:31.129Z,47.84
2023-05-23T13:43:33.501Z,47.80
2023-05-23T13:44:36.414Z,47.90
2023-05-23T13:45:38.892Z,48.27
2023-05-23T13:46:41.516Z,48.22
2023-05-23T13:47:44.733Z,48.34
2023-05-23T13:48:47.533Z,48.27
2023-05-23T13:49:50.475Z,48.70
2023-05-23T13:50:52.936Z,48.88
2023-05-23T13:51:55.548Z,48.89
2023-05-23T13:52:57.909Z,48.73
2023-05-23T13:54:00.255Z,48.81
2023-05-23T13:55:04.804Z,48.89
2023-05-23T13:56:07.426Z,49.15
2023-05-23T13:57:09.811Z,49.30
2023-05-23T13:58:13.854Z,49.18
2023-05-23T13:59:21.267Z,49.12